sensor_id;sensor_type;location;lat;lon;timestamp;P1;durP1;ratioP1;P2;durP2;ratioP2
15637;SDS011;26604;53.596;10.042;2024-01-30T00:02:16;16.13;;;6.70;;
15637;SDS011;26604;53.596;10.042;2024-01-30T00:04:43;12.35;;;6.35;;
15637;SDS011;26604;53.596;10.042;2024-01-30T00:07:09;12.55;;;6.25;;
15637;SDS011;26604;53.596;10.042;2024-01-30T00:09:38;11.77;;;6.35;;
15637;SDS011;26604;53.596;10.042;2024-01-30T00:12:05;9.63;;;5.45;;
15637;SDS011;26604;53.596;10.042;2024-01-30T00:14:32;9.88;;;5.78;;
15637;SDS011;26604;53.596;10.042;2024-01-30T00:16:59;10.95;;;5.70;;
15637;SDS011;26604;53.596;10.042;2024-01-30T00:19:26;12.50;;;6.63;;
15637;SDS011;26604;53.596;10.042;2024-01-30T00:21:53;10.70;;;6.13;;
15637;SDS011;26604;53.596;10.042;2024-01-30T00:24:19;11.13;;;5.95;;
15637;SDS011;26604;53.596;10.042;2024-01-30T00:26:48;8.75;;;5.50;;
15637;SDS011;26604;53.596;10.042;2024-01-30T00:29:14;12.75;;;6.07;;
15637;SDS011;26604;53.596;10.042;2024-01-30T00:31:44;8.43;;;5.53;;
15637;SDS011;26604;53.596;10.042;2024-01-30T00:34:11;10.65;;;7.25;;
15637;SDS011;26604;53.596;10.042;2024-01-30T00:36:38;10.02;;;6.00;;
15637;SDS011;26604;53.596;10.042;2024-01-30T00:39:04;11.30;;;6.03;;
15637;SDS011;26604;53.596;10.042;2024-01-30T00:41:34;9.57;;;5.68;;
15637;SDS011;26604;53.596;10.042;2024-01-30T00:44:02;9.80;;;5.65;;
15637;SDS011;26604;53.596;10.042;2024-01-30T00:46:29;9.55;;;6.13;;
15637;SDS011;26604;53.596;10.042;2024-01-30T00:48:56;8.90;;;5.53;;
15637;SDS011;26604;53.596;10.042;2024-01-30T00:51:23;7.88;;;5.38;;
15637;SDS011;26604;53.596;10.042;2024-01-30T00:53:50;10.82;;;5.65;;
15637;SDS011;26604;53.596;10.042;2024-01-30T00:56:16;11.73;;;6.20;;
15637;SDS011;26604;53.596;10.042;2024-01-30T00:58:44;13.05;;;5.53;;
15637;SDS011;26604;53.596;10.042;2024-01-30T01:01:12;8.57;;;4.93;;
15637;SDS011;26604;53.596;10.042;2024-01-30T01:03:39;8.27;;;5.15;;
15637;SDS011;26604;53.596;10.042;2024-01-30T01:06:08;8.52;;;5.55;;
15637;SDS011;26604;53.596;10.042;2024-01-30T01:08:35;10.13;;;5.75;;
15637;SDS011;26604;53.596;10.042;2024-01-30T01:11:02;10.15;;;6.30;;
15637;SDS011;26604;53.596;10.042;2024-01-30T01:13:29;14.68;;;5.95;;
15637;SDS011;26604;53.596;10.042;2024-01-30T01:15:56;9.77;;;5.93;;
15637;SDS011;26604;53.596;10.042;2024-01-30T01:18:24;11.43;;;5.90;;
15637;SDS011;26604;53.596;10.042;2024-01-30T01:20:52;9.18;;;5.38;;
15637;SDS011;26604;53.596;10.042;2024-01-30T01:23:19;12.18;;;5.50;;
15637;SDS011;26604;53.596;10.042;2024-01-30T01:25:45;10.20;;;5.63;;
15637;SDS011;26604;53.596;10.042;2024-01-30T01:28:12;8.32;;;4.60;;
15637;SDS011;26604;53.596;10.042;2024-01-30T01:30:39;8.70;;;5.15;;
15637;SDS011;26604;53.596;10.042;2024-01-30T01:33:06;11.52;;;5.53;;
15637;SDS011;26604;53.596;10.042;2024-01-30T01:35:35;9.05;;;5.47;;
15637;SDS011;26604;53.596;10.042;2024-01-30T01:38:02;10.88;;;5.63;;
15637;SDS011;26604;53.596;10.042;2024-01-30T01:40:29;8.15;;;4.93;;
15637;SDS011;26604;53.596;10.042;2024-01-30T01:42:56;8.00;;;4.65;;
15637;SDS011;26604;53.596;10.042;2024-01-30T01:45:23;7.13;;;4.95;;
15637;SDS011;26604;53.596;10.042;2024-01-30T01:47:50;6.82;;;4.65;;
15637;SDS011;26604;53.596;10.042;2024-01-30T01:50:27;10.23;;;5.13;;
15637;SDS011;26604;53.596;10.042;2024-01-30T01:52:55;9.38;;;5.63;;
15637;SDS011;26604;53.596;10.042;2024-01-30T01:55:22;10.15;;;5.30;;
15637;SDS011;26604;53.596;10.042;2024-01-30T01:57:51;9.35;;;5.40;;
15637;SDS011;26604;53.596;10.042;2024-01-30T02:00:19;8.73;;;4.95;;
15637;SDS011;26604;53.596;10.042;2024-01-30T02:02:46;10.65;;;5.63;;
15637;SDS011;26604;53.596;10.042;2024-01-30T02:05:14;11.40;;;5.28;;
15637;SDS011;26604;53.596;10.042;2024-01-30T02:07:41;7.90;;;5.50;;
15637;SDS011;26604;53.596;10.042;2024-01-30T02:10:10;8.85;;;5.00;;
15637;SDS011;26604;53.596;10.042;2024-01-30T02:12:37;8.98;;;5.10;;
15637;SDS011;26604;53.596;10.042;2024-01-30T02:15:04;10.10;;;5.40;;
15637;SDS011;26604;53.596;10.042;2024-01-30T02:17:33;8.48;;;5.25;;
15637;SDS011;26604;53.596;10.042;2024-01-30T02:19:59;10.35;;;4.90;;
15637;SDS011;26604;53.596;10.042;2024-01-30T02:22:28;7.45;;;4.93;;
15637;SDS011;26604;53.596;10.042;2024-01-30T02:24:55;8.40;;;5.30;;
15637;SDS011;26604;53.596;10.042;2024-01-30T02:27:22;10.73;;;5.28;;
15637;SDS011;26604;53.596;10.042;2024-01-30T02:29:49;8.70;;;5.60;;
15637;SDS011;26604;53.596;10.042;2024-01-30T02:32:16;9.48;;;5.40;;
15637;SDS011;26604;53.596;10.042;2024-01-30T02:34:43;9.15;;;5.40;;
15637;SDS011;26604;53.596;10.042;2024-01-30T02:37:09;9.27;;;5.20;;
15637;SDS011;26604;53.596;10.042;2024-01-30T02:39:38;12.30;;;5.43;;
15637;SDS011;26604;53.596;10.042;2024-01-30T02:42:05;8.93;;;5.25;;
15637;SDS011;26604;53.596;10.042;2024-01-30T02:44:32;9.18;;;5.00;;
15637;SDS011;26604;53.596;10.042;2024-01-30T02:46:58;11.48;;;5.45;;
15637;SDS011;26604;53.596;10.042;2024-01-30T02:49:25;10.88;;;5.28;;
15637;SDS011;26604;53.596;10.042;2024-01-30T02:51:53;10.73;;;5.65;;
15637;SDS011;26604;53.596;10.042;2024-01-30T02:54:20;7.88;;;4.97;;
15637;SDS011;26604;53.596;10.042;2024-01-30T02:56:48;10.70;;;5.50;;
15637;SDS011;26604;53.596;10.042;2024-01-30T02:59:15;9.30;;;5.50;;
15637;SDS011;26604;53.596;10.042;2024-01-30T03:01:42;8.88;;;5.57;;
15637;SDS011;26604;53.596;10.042;2024-01-30T03:04:10;9.93;;;5.60;;
15637;SDS011;26604;53.596;10.042;2024-01-30T03:06:37;12.27;;;5.70;;
15637;SDS011;26604;53.596;10.042;2024-01-30T03:09:04;9.88;;;5.60;;
15637;SDS011;26604;53.596;10.042;2024-01-30T03:11:30;9.85;;;5.75;;
15637;SDS011;26604;53.596;10.042;2024-01-30T03:13:59;9.15;;;5.65;;
15637;SDS011;26604;53.596;10.042;2024-01-30T03:16:25;9.55;;;5.78;;
15637;SDS011;26604;53.596;10.042;2024-01-30T03:18:52;11.45;;;5.88;;
15637;SDS011;26604;53.596;10.042;2024-01-30T03:21:19;11.77;;;6.05;;
15637;SDS011;26604;53.596;10.042;2024-01-30T03:23:46;10.35;;;5.63;;
15637;SDS011;26604;53.596;10.042;2024-01-30T03:26:13;11.45;;;6.55;;
15637;SDS011;26604;53.596;10.042;2024-01-30T03:28:40;7.60;;;5.78;;
15637;SDS011;26604;53.596;10.042;2024-01-30T03:31:08;10.50;;;5.97;;
15637;SDS011;26604;53.596;10.042;2024-01-30T03:33:36;9.50;;;5.28;;
15637;SDS011;26604;53.596;10.042;2024-01-30T03:36:04;8.18;;;5.50;;
15637;SDS011;26604;53.596;10.042;2024-01-30T03:38:31;8.88;;;5.45;;
15637;SDS011;26604;53.596;10.042;2024-01-30T03:40:58;14.07;;;6.43;;
15637;SDS011;26604;53.596;10.042;2024-01-30T03:43:25;9.48;;;5.78;;
15637;SDS011;26604;53.596;10.042;2024-01-30T03:45:52;10.43;;;6.25;;
15637;SDS011;26604;53.596;10.042;2024-01-30T03:48:21;11.40;;;6.50;;
15637;SDS011;26604;53.596;10.042;2024-01-30T03:50:48;12.95;;;5.97;;
15637;SDS011;26604;53.596;10.042;2024-01-30T03:53:14;11.80;;;6.25;;
15637;SDS011;26604;53.596;10.042;2024-01-30T03:55:41;11.00;;;6.05;;
15637;SDS011;26604;53.596;10.042;2024-01-30T03:58:08;16.58;;;6.53;;
15637;SDS011;26604;53.596;10.042;2024-01-30T04:00:35;11.10;;;6.13;;
15637;SDS011;26604;53.596;10.042;2024-01-30T04:03:02;11.80;;;6.30;;
15637;SDS011;26604;53.596;10.042;2024-01-30T04:05:30;10.95;;;6.50;;
15637;SDS011;26604;53.596;10.042;2024-01-30T04:07:57;9.38;;;6.07;;
15637;SDS011;26604;53.596;10.042;2024-01-30T04:10:24;9.10;;;6.18;;
15637;SDS011;26604;53.596;10.042;2024-01-30T04:12:51;15.82;;;6.70;;
15637;SDS011;26604;53.596;10.042;2024-01-30T04:15:19;9.43;;;6.07;;
15637;SDS011;26604;53.596;10.042;2024-01-30T04:17:46;12.52;;;6.30;;
15637;SDS011;26604;53.596;10.042;2024-01-30T04:20:13;10.77;;;6.35;;
15637;SDS011;26604;53.596;10.042;2024-01-30T04:22:43;12.05;;;6.53;;
15637;SDS011;26604;53.596;10.042;2024-01-30T04:25:10;11.27;;;6.63;;
15637;SDS011;26604;53.596;10.042;2024-01-30T04:27:37;11.18;;;6.10;;
15637;SDS011;26604;53.596;10.042;2024-01-30T04:30:04;12.77;;;6.65;;
15637;SDS011;26604;53.596;10.042;2024-01-30T04:32:32;10.25;;;6.30;;
15637;SDS011;26604;53.596;10.042;2024-01-30T04:34:59;10.75;;;6.20;;
15637;SDS011;26604;53.596;10.042;2024-01-30T04:37:26;10.48;;;6.63;;
15637;SDS011;26604;53.596;10.042;2024-01-30T04:39:54;10.23;;;6.50;;
15637;SDS011;26604;53.596;10.042;2024-01-30T04:42:21;9.77;;;7.07;;
15637;SDS011;26604;53.596;10.042;2024-01-30T04:44:48;11.98;;;7.15;;
15637;SDS011;26604;53.596;10.042;2024-01-30T04:47:15;9.20;;;6.45;;
15637;SDS011;26604;53.596;10.042;2024-01-30T04:49:42;12.02;;;7.82;;
15637;SDS011;26604;53.596;10.042;2024-01-30T04:52:09;13.90;;;7.20;;
15637;SDS011;26604;53.596;10.042;2024-01-30T04:54:36;12.23;;;7.45;;
15637;SDS011;26604;53.596;10.042;2024-01-30T04:57:04;18.30;;;7.75;;
15637;SDS011;26604;53.596;10.042;2024-01-30T04:59:34;11.65;;;6.93;;
15637;SDS011;26604;53.596;10.042;2024-01-30T05:02:01;12.95;;;7.38;;
15637;SDS011;26604;53.596;10.042;2024-01-30T05:04:28;16.13;;;8.30;;
15637;SDS011;26604;53.596;10.042;2024-01-30T05:06:55;12.68;;;7.55;;
15637;SDS011;26604;53.596;10.042;2024-01-30T05:09:22;11.35;;;6.82;;
15637;SDS011;26604;53.596;10.042;2024-01-30T05:11:49;11.68;;;6.63;;
15637;SDS011;26604;53.596;10.042;2024-01-30T05:14:17;15.88;;;7.65;;
15637;SDS011;26604;53.596;10.042;2024-01-30T05:16:44;12.35;;;7.85;;
15637;SDS011;26604;53.596;10.042;2024-01-30T05:19:12;12.70;;;8.18;;
15637;SDS011;26604;53.596;10.042;2024-01-30T05:21:39;13.30;;;7.32;;
15637;SDS011;26604;53.596;10.042;2024-01-30T05:24:06;18.50;;;8.20;;
15637;SDS011;26604;53.596;10.042;2024-01-30T05:26:34;14.63;;;8.20;;
15637;SDS011;26604;53.596;10.042;2024-01-30T05:29:01;11.95;;;7.30;;
15637;SDS011;26604;53.596;10.042;2024-01-30T05:31:30;13.52;;;7.90;;
15637;SDS011;26604;53.596;10.042;2024-01-30T05:33:57;13.07;;;7.53;;
15637;SDS011;26604;53.596;10.042;2024-01-30T05:36:23;17.80;;;7.93;;
15637;SDS011;26604;53.596;10.042;2024-01-30T05:38:50;13.52;;;7.95;;
15637;SDS011;26604;53.596;10.042;2024-01-30T05:41:17;12.60;;;7.97;;
15637;SDS011;26604;53.596;10.042;2024-01-30T05:43:44;18.63;;;9.00;;
15637;SDS011;26604;53.596;10.042;2024-01-30T05:46:11;20.10;;;8.90;;
15637;SDS011;26604;53.596;10.042;2024-01-30T05:48:39;12.35;;;7.43;;
15637;SDS011;26604;53.596;10.042;2024-01-30T05:51:06;14.55;;;8.00;;
15637;SDS011;26604;53.596;10.042;2024-01-30T05:53:33;13.73;;;7.68;;
15637;SDS011;26604;53.596;10.042;2024-01-30T05:56:01;13.70;;;7.70;;
15637;SDS011;26604;53.596;10.042;2024-01-30T05:58:28;13.43;;;7.95;;
15637;SDS011;26604;53.596;10.042;2024-01-30T06:00:56;12.95;;;8.05;;
15637;SDS011;26604;53.596;10.042;2024-01-30T06:03:23;11.07;;;7.90;;
15637;SDS011;26604;53.596;10.042;2024-01-30T06:05:51;13.15;;;7.65;;
15637;SDS011;26604;53.596;10.042;2024-01-30T06:08:18;15.88;;;8.60;;
15637;SDS011;26604;53.596;10.042;2024-01-30T06:10:45;14.23;;;8.05;;
15637;SDS011;26604;53.596;10.042;2024-01-30T06:13:12;16.33;;;8.52;;
15637;SDS011;26604;53.596;10.042;2024-01-30T06:15:39;18.30;;;8.18;;
15637;SDS011;26604;53.596;10.042;2024-01-30T06:18:06;17.38;;;8.60;;
15637;SDS011;26604;53.596;10.042;2024-01-30T06:20:33;12.20;;;7.72;;
15637;SDS011;26604;53.596;10.042;2024-01-30T06:23:02;12.95;;;8.23;;
15637;SDS011;26604;53.596;10.042;2024-01-30T06:25:29;18.80;;;8.35;;
15637;SDS011;26604;53.596;10.042;2024-01-30T06:27:55;16.70;;;8.50;;
15637;SDS011;26604;53.596;10.042;2024-01-30T06:30:22;13.80;;;8.23;;
15637;SDS011;26604;53.596;10.042;2024-01-30T06:32:49;16.83;;;8.02;;
15637;SDS011;26604;53.596;10.042;2024-01-30T06:35:16;14.73;;;8.32;;
15637;SDS011;26604;53.596;10.042;2024-01-30T06:37:43;12.82;;;8.43;;
15637;SDS011;26604;53.596;10.042;2024-01-30T06:40:12;17.77;;;8.10;;
15637;SDS011;26604;53.596;10.042;2024-01-30T06:42:39;17.38;;;8.30;;
15637;SDS011;26604;53.596;10.042;2024-01-30T06:45:06;13.20;;;7.97;;
15637;SDS011;26604;53.596;10.042;2024-01-30T06:47:34;19.42;;;8.48;;
15637;SDS011;26604;53.596;10.042;2024-01-30T06:50:01;16.85;;;8.35;;
15637;SDS011;26604;53.596;10.042;2024-01-30T06:52:28;12.70;;;7.70;;
15637;SDS011;26604;53.596;10.042;2024-01-30T06:54:55;16.95;;;8.80;;
15637;SDS011;26604;53.596;10.042;2024-01-30T06:57:23;14.38;;;8.32;;
15637;SDS011;26604;53.596;10.042;2024-01-30T06:59:52;14.45;;;8.00;;
15637;SDS011;26604;53.596;10.042;2024-01-30T07:02:22;13.25;;;7.88;;
15637;SDS011;26604;53.596;10.042;2024-01-30T07:04:49;14.95;;;7.72;;
15637;SDS011;26604;53.596;10.042;2024-01-30T07:07:16;14.05;;;8.05;;
15637;SDS011;26604;53.596;10.042;2024-01-30T07:09:43;12.85;;;7.63;;
15637;SDS011;26604;53.596;10.042;2024-01-30T07:12:11;14.57;;;8.40;;
15637;SDS011;26604;53.596;10.042;2024-01-30T07:14:39;17.30;;;8.25;;
15637;SDS011;26604;53.596;10.042;2024-01-30T07:17:06;17.10;;;9.57;;
15637;SDS011;26604;53.596;10.042;2024-01-30T07:19:33;14.70;;;8.65;;
15637;SDS011;26604;53.596;10.042;2024-01-30T07:22:00;15.70;;;8.40;;
15637;SDS011;26604;53.596;10.042;2024-01-30T07:24:27;17.67;;;8.27;;
15637;SDS011;26604;53.596;10.042;2024-01-30T07:26:54;14.95;;;8.27;;
15637;SDS011;26604;53.596;10.042;2024-01-30T07:29:21;16.60;;;8.40;;
15637;SDS011;26604;53.596;10.042;2024-01-30T07:31:49;15.85;;;8.68;;
15637;SDS011;26604;53.596;10.042;2024-01-30T07:34:16;17.60;;;8.90;;
15637;SDS011;26604;53.596;10.042;2024-01-30T07:36:43;21.08;;;9.13;;
15637;SDS011;26604;53.596;10.042;2024-01-30T07:39:11;13.48;;;8.68;;
15637;SDS011;26604;53.596;10.042;2024-01-30T07:41:38;18.00;;;8.95;;
15637;SDS011;26604;53.596;10.042;2024-01-30T07:44:05;14.13;;;7.95;;
15637;SDS011;26604;53.596;10.042;2024-01-30T07:46:32;15.43;;;8.65;;
15637;SDS011;26604;53.596;10.042;2024-01-30T07:49:00;16.38;;;8.52;;
15637;SDS011;26604;53.596;10.042;2024-01-30T07:51:27;16.50;;;9.48;;
15637;SDS011;26604;53.596;10.042;2024-01-30T07:53:56;16.25;;;8.63;;
15637;SDS011;26604;53.596;10.042;2024-01-30T07:56:23;13.95;;;8.68;;
15637;SDS011;26604;53.596;10.042;2024-01-30T07:58:50;16.95;;;8.95;;
15637;SDS011;26604;53.596;10.042;2024-01-30T08:01:17;17.05;;;8.68;;
15637;SDS011;26604;53.596;10.042;2024-01-30T08:03:44;17.55;;;9.75;;
15637;SDS011;26604;53.596;10.042;2024-01-30T08:06:13;12.23;;;8.25;;
15637;SDS011;26604;53.596;10.042;2024-01-30T08:08:40;14.65;;;9.13;;
15637;SDS011;26604;53.596;10.042;2024-01-30T08:11:07;16.85;;;9.98;;
15637;SDS011;26604;53.596;10.042;2024-01-30T08:13:33;16.40;;;8.95;;
15637;SDS011;26604;53.596;10.042;2024-01-30T08:16:00;19.33;;;9.70;;
15637;SDS011;26604;53.596;10.042;2024-01-30T08:18:27;16.45;;;9.20;;
15637;SDS011;26604;53.596;10.042;2024-01-30T08:20:54;15.63;;;9.70;;
15637;SDS011;26604;53.596;10.042;2024-01-30T08:23:22;16.75;;;9.02;;
15637;SDS011;26604;53.596;10.042;2024-01-30T08:25:49;13.30;;;8.68;;
15637;SDS011;26604;53.596;10.042;2024-01-30T08:28:16;13.98;;;9.13;;
15637;SDS011;26604;53.596;10.042;2024-01-30T08:30:43;16.85;;;9.52;;
15637;SDS011;26604;53.596;10.042;2024-01-30T08:33:10;17.98;;;9.57;;
15637;SDS011;26604;53.596;10.042;2024-01-30T08:35:36;20.80;;;9.43;;
15637;SDS011;26604;53.596;10.042;2024-01-30T08:38:03;14.30;;;8.55;;
15637;SDS011;26604;53.596;10.042;2024-01-30T08:40:31;18.20;;;9.05;;
15637;SDS011;26604;53.596;10.042;2024-01-30T08:42:58;18.40;;;9.77;;
15637;SDS011;26604;53.596;10.042;2024-01-30T08:45:25;14.15;;;8.90;;
15637;SDS011;26604;53.596;10.042;2024-01-30T08:47:52;17.48;;;9.13;;
15637;SDS011;26604;53.596;10.042;2024-01-30T08:50:19;14.63;;;9.13;;
15637;SDS011;26604;53.596;10.042;2024-01-30T08:52:46;18.73;;;9.30;;
15637;SDS011;26604;53.596;10.042;2024-01-30T08:55:13;16.35;;;9.25;;
15637;SDS011;26604;53.596;10.042;2024-01-30T08:57:41;17.40;;;9.23;;
15637;SDS011;26604;53.596;10.042;2024-01-30T09:00:08;17.25;;;9.05;;
15637;SDS011;26604;53.596;10.042;2024-01-30T09:02:36;17.65;;;9.68;;
15637;SDS011;26604;53.596;10.042;2024-01-30T09:05:03;17.30;;;9.57;;
15637;SDS011;26604;53.596;10.042;2024-01-30T09:07:30;16.15;;;9.43;;
15637;SDS011;26604;53.596;10.042;2024-01-30T09:09:57;16.40;;;9.32;;
15637;SDS011;26604;53.596;10.042;2024-01-30T09:12:24;18.35;;;9.32;;
15637;SDS011;26604;53.596;10.042;2024-01-30T09:14:52;15.48;;;9.55;;
15637;SDS011;26604;53.596;10.042;2024-01-30T09:17:21;20.45;;;9.43;;
15637;SDS011;26604;53.596;10.042;2024-01-30T09:19:48;15.02;;;9.18;;
15637;SDS011;26604;53.596;10.042;2024-01-30T09:22:15;17.60;;;9.05;;
15637;SDS011;26604;53.596;10.042;2024-01-30T09:24:42;19.48;;;9.25;;
15637;SDS011;26604;53.596;10.042;2024-01-30T09:27:09;15.18;;;8.90;;
15637;SDS011;26604;53.596;10.042;2024-01-30T09:29:35;17.23;;;8.98;;
15637;SDS011;26604;53.596;10.042;2024-01-30T09:32:04;19.23;;;9.45;;
15637;SDS011;26604;53.596;10.042;2024-01-30T09:34:32;15.90;;;9.50;;
15637;SDS011;26604;53.596;10.042;2024-01-30T09:36:59;16.48;;;8.98;;
15637;SDS011;26604;53.596;10.042;2024-01-30T09:39:26;19.95;;;9.10;;
15637;SDS011;26604;53.596;10.042;2024-01-30T09:41:56;15.60;;;9.13;;
15637;SDS011;26604;53.596;10.042;2024-01-30T09:44:29;16.67;;;9.60;;
15637;SDS011;26604;53.596;10.042;2024-01-30T09:46:56;13.75;;;8.73;;
15637;SDS011;26604;53.596;10.042;2024-01-30T09:49:30;18.52;;;9.02;;
15637;SDS011;26604;53.596;10.042;2024-01-30T09:51:59;17.63;;;9.73;;
15637;SDS011;26604;53.596;10.042;2024-01-30T09:54:26;15.27;;;9.25;;
15637;SDS011;26604;53.596;10.042;2024-01-30T09:56:56;16.63;;;8.95;;
15637;SDS011;26604;53.596;10.042;2024-01-30T09:59:22;18.05;;;9.30;;
15637;SDS011;26604;53.596;10.042;2024-01-30T10:01:49;14.82;;;9.60;;
15637;SDS011;26604;53.596;10.042;2024-01-30T10:04:17;16.58;;;9.00;;
15637;SDS011;26604;53.596;10.042;2024-01-30T10:06:45;15.45;;;9.95;;
15637;SDS011;26604;53.596;10.042;2024-01-30T10:09:13;16.23;;;9.50;;
15637;SDS011;26604;53.596;10.042;2024-01-30T10:11:40;17.98;;;9.13;;
15637;SDS011;26604;53.596;10.042;2024-01-30T10:14:07;16.35;;;9.27;;
15637;SDS011;26604;53.596;10.042;2024-01-30T10:16:34;15.48;;;9.02;;
15637;SDS011;26604;53.596;10.042;2024-01-30T10:19:01;15.43;;;9.35;;
15637;SDS011;26604;53.596;10.042;2024-01-30T10:21:28;16.40;;;8.35;;
15637;SDS011;26604;53.596;10.042;2024-01-30T10:23:57;15.65;;;8.95;;
15637;SDS011;26604;53.596;10.042;2024-01-30T10:26:25;15.82;;;8.93;;
15637;SDS011;26604;53.596;10.042;2024-01-30T10:28:54;14.52;;;8.32;;
15637;SDS011;26604;53.596;10.042;2024-01-30T10:31:21;18.80;;;9.18;;
15637;SDS011;26604;53.596;10.042;2024-01-30T10:33:49;15.38;;;8.95;;
15637;SDS011;26604;53.596;10.042;2024-01-30T10:36:16;15.48;;;9.05;;
15637;SDS011;26604;53.596;10.042;2024-01-30T10:38:44;15.25;;;9.23;;
15637;SDS011;26604;53.596;10.042;2024-01-30T10:41:14;16.02;;;8.90;;
15637;SDS011;26604;53.596;10.042;2024-01-30T10:43:48;16.00;;;9.35;;
15637;SDS011;26604;53.596;10.042;2024-01-30T10:46:22;18.60;;;9.88;;
15637;SDS011;26604;53.596;10.042;2024-01-30T10:48:56;12.93;;;8.27;;
15637;SDS011;26604;53.596;10.042;2024-01-30T10:51:24;17.60;;;8.45;;
15637;SDS011;26604;53.596;10.042;2024-01-30T10:53:53;14.43;;;9.15;;
15637;SDS011;26604;53.596;10.042;2024-01-30T10:56:21;16.98;;;9.13;;
15637;SDS011;26604;53.596;10.042;2024-01-30T10:58:49;20.42;;;9.15;;
15637;SDS011;26604;53.596;10.042;2024-01-30T11:01:17;19.00;;;9.52;;
15637;SDS011;26604;53.596;10.042;2024-01-30T11:03:45;19.02;;;9.27;;
15637;SDS011;26604;53.596;10.042;2024-01-30T11:06:12;18.55;;;9.82;;
15637;SDS011;26604;53.596;10.042;2024-01-30T11:08:43;19.73;;;9.30;;
15637;SDS011;26604;53.596;10.042;2024-01-30T11:11:10;17.02;;;8.65;;
15637;SDS011;26604;53.596;10.042;2024-01-30T11:13:39;13.27;;;8.40;;
15637;SDS011;26604;53.596;10.042;2024-01-30T11:16:07;17.13;;;8.25;;
15637;SDS011;26604;53.596;10.042;2024-01-30T11:18:38;15.93;;;8.32;;
15637;SDS011;26604;53.596;10.042;2024-01-30T11:21:05;14.18;;;8.80;;
15637;SDS011;26604;53.596;10.042;2024-01-30T11:23:33;16.67;;;9.10;;
15637;SDS011;26604;53.596;10.042;2024-01-30T11:26:01;13.50;;;8.40;;
15637;SDS011;26604;53.596;10.042;2024-01-30T11:28:31;17.70;;;9.00;;
15637;SDS011;26604;53.596;10.042;2024-01-30T11:31:04;13.60;;;8.55;;
15637;SDS011;26604;53.596;10.042;2024-01-30T11:33:33;14.10;;;8.38;;
15637;SDS011;26604;53.596;10.042;2024-01-30T11:36:00;17.48;;;8.80;;
15637;SDS011;26604;53.596;10.042;2024-01-30T11:38:28;23.63;;;10.38;;
15637;SDS011;26604;53.596;10.042;2024-01-30T11:40:55;15.70;;;8.77;;
15637;SDS011;26604;53.596;10.042;2024-01-30T11:43:23;16.60;;;9.02;;
15637;SDS011;26604;53.596;10.042;2024-01-30T11:45:50;17.23;;;8.75;;
15637;SDS011;26604;53.596;10.042;2024-01-30T11:48:18;17.73;;;8.57;;
15637;SDS011;26604;53.596;10.042;2024-01-30T11:50:45;12.32;;;8.00;;
15637;SDS011;26604;53.596;10.042;2024-01-30T11:53:12;16.05;;;8.27;;
15637;SDS011;26604;53.596;10.042;2024-01-30T11:55:39;15.32;;;9.13;;
15637;SDS011;26604;53.596;10.042;2024-01-30T11:58:06;19.00;;;9.40;;
15637;SDS011;26604;53.596;10.042;2024-01-30T12:00:33;18.02;;;9.25;;
15637;SDS011;26604;53.596;10.042;2024-01-30T12:03:00;17.27;;;8.70;;
15637;SDS011;26604;53.596;10.042;2024-01-30T12:05:29;14.25;;;8.50;;
15637;SDS011;26604;53.596;10.042;2024-01-30T12:07:56;16.30;;;7.85;;
15637;SDS011;26604;53.596;10.042;2024-01-30T12:10:24;13.05;;;8.68;;
15637;SDS011;26604;53.596;10.042;2024-01-30T12:12:51;17.85;;;9.15;;
15637;SDS011;26604;53.596;10.042;2024-01-30T12:15:21;14.70;;;8.48;;
15637;SDS011;26604;53.596;10.042;2024-01-30T12:17:48;15.73;;;8.77;;
15637;SDS011;26604;53.596;10.042;2024-01-30T12:20:17;12.70;;;8.32;;
15637;SDS011;26604;53.596;10.042;2024-01-30T12:22:48;15.93;;;8.25;;
15637;SDS011;26604;53.596;10.042;2024-01-30T12:25:17;18.17;;;8.80;;
15637;SDS011;26604;53.596;10.042;2024-01-30T12:27:45;16.75;;;8.48;;
15637;SDS011;26604;53.596;10.042;2024-01-30T12:30:15;15.93;;;9.32;;
15637;SDS011;26604;53.596;10.042;2024-01-30T12:32:42;18.77;;;9.10;;
15637;SDS011;26604;53.596;10.042;2024-01-30T12:35:10;13.68;;;8.48;;
15637;SDS011;26604;53.596;10.042;2024-01-30T12:37:38;12.68;;;7.93;;
15637;SDS011;26604;53.596;10.042;2024-01-30T12:40:07;16.10;;;8.55;;
15637;SDS011;26604;53.596;10.042;2024-01-30T12:42:35;19.10;;;8.90;;
15637;SDS011;26604;53.596;10.042;2024-01-30T12:45:02;12.77;;;8.27;;
15637;SDS011;26604;53.596;10.042;2024-01-30T12:47:29;18.90;;;8.57;;
15637;SDS011;26604;53.596;10.042;2024-01-30T12:49:56;17.90;;;8.40;;
15637;SDS011;26604;53.596;10.042;2024-01-30T12:52:24;12.60;;;7.55;;
15637;SDS011;26604;53.596;10.042;2024-01-30T12:54:51;14.75;;;9.00;;
15637;SDS011;26604;53.596;10.042;2024-01-30T12:57:20;16.25;;;8.02;;
15637;SDS011;26604;53.596;10.042;2024-01-30T12:59:47;13.80;;;7.50;;
15637;SDS011;26604;53.596;10.042;2024-01-30T13:02:13;13.57;;;7.22;;
15637;SDS011;26604;53.596;10.042;2024-01-30T13:04:42;11.52;;;7.00;;
15637;SDS011;26604;53.596;10.042;2024-01-30T13:07:09;12.85;;;7.13;;
15637;SDS011;26604;53.596;10.042;2024-01-30T13:09:36;11.23;;;6.82;;
15637;SDS011;26604;53.596;10.042;2024-01-30T13:12:03;15.40;;;7.72;;
15637;SDS011;26604;53.596;10.042;2024-01-30T13:14:32;19.00;;;7.65;;
15637;SDS011;26604;53.596;10.042;2024-01-30T13:16:59;12.35;;;7.65;;
15637;SDS011;26604;53.596;10.042;2024-01-30T13:19:26;13.90;;;7.38;;
15637;SDS011;26604;53.596;10.042;2024-01-30T13:21:53;14.48;;;7.55;;
15637;SDS011;26604;53.596;10.042;2024-01-30T13:24:20;11.02;;;6.53;;
15637;SDS011;26604;53.596;10.042;2024-01-30T13:26:47;13.73;;;7.90;;
15637;SDS011;26604;53.596;10.042;2024-01-30T13:29:14;13.10;;;7.50;;
15637;SDS011;26604;53.596;10.042;2024-01-30T13:31:42;17.33;;;7.35;;
15637;SDS011;26604;53.596;10.042;2024-01-30T13:34:11;11.55;;;7.10;;
15637;SDS011;26604;53.596;10.042;2024-01-30T13:36:38;15.07;;;7.35;;
15637;SDS011;26604;53.596;10.042;2024-01-30T13:39:06;13.85;;;8.57;;
15637;SDS011;26604;53.596;10.042;2024-01-30T13:41:35;13.65;;;7.20;;
15637;SDS011;26604;53.596;10.042;2024-01-30T13:44:02;15.77;;;7.18;;
15637;SDS011;26604;53.596;10.042;2024-01-30T13:46:29;15.15;;;7.47;;
15637;SDS011;26604;53.596;10.042;2024-01-30T13:49:03;14.68;;;7.28;;
15637;SDS011;26604;53.596;10.042;2024-01-30T13:51:30;13.60;;;7.53;;
15637;SDS011;26604;53.596;10.042;2024-01-30T13:53:57;15.10;;;7.50;;
15637;SDS011;26604;53.596;10.042;2024-01-30T13:56:24;14.05;;;7.63;;
15637;SDS011;26604;53.596;10.042;2024-01-30T13:58:51;13.57;;;7.07;;
15637;SDS011;26604;53.596;10.042;2024-01-30T14:01:20;14.60;;;7.40;;
15637;SDS011;26604;53.596;10.042;2024-01-30T14:03:47;11.95;;;6.90;;
15637;SDS011;26604;53.596;10.042;2024-01-30T14:06:15;12.07;;;7.38;;
15637;SDS011;26604;53.596;10.042;2024-01-30T14:08:42;16.88;;;7.85;;
15637;SDS011;26604;53.596;10.042;2024-01-30T14:11:09;10.55;;;6.40;;
15637;SDS011;26604;53.596;10.042;2024-01-30T14:13:36;13.93;;;6.55;;
15637;SDS011;26604;53.596;10.042;2024-01-30T14:16:03;11.05;;;6.78;;
15637;SDS011;26604;53.596;10.042;2024-01-30T14:18:31;12.38;;;6.45;;
15637;SDS011;26604;53.596;10.042;2024-01-30T14:20:57;17.50;;;7.45;;
15637;SDS011;26604;53.596;10.042;2024-01-30T14:23:26;14.20;;;7.35;;
15637;SDS011;26604;53.596;10.042;2024-01-30T14:25:52;14.10;;;7.25;;